sensor_id;sensor_type;location;lat;lon;timestamp;P1;durP1;ratioP1;P2;durP2;ratioP2
61112;SDS011;47184;57.998;56.184;2023-02-28T03:44:44;3.25;;;1.55;;
61112;SDS011;47184;57.998;56.184;2023-02-28T03:47:19;5.55;;;3.25;;
61112;SDS011;47184;57.998;56.184;2023-02-28T03:49:53;4.65;;;2.67;;
61112;SDS011;47184;57.998;56.184;2023-02-28T03:52:42;5.40;;;2.15;;
61112;SDS011;47184;57.998;56.184;2023-02-28T03:55:13;1.73;;;1.17;;
61112;SDS011;47184;57.998;56.184;2023-02-28T03:57:43;3.38;;;1.80;;
61112;SDS011;47184;57.998;56.184;2023-02-28T04:00:27;1.95;;;0.77;;
61112;SDS011;47184;57.998;56.184;2023-02-28T04:03:00;7.78;;;3.85;;
61112;SDS011;47184;57.998;56.184;2023-02-28T04:21:35;8.95;;;4.35;;
61112;SDS011;47184;57.998;56.184;2023-02-28T04:24:22;3.13;;;1.90;;
61112;SDS011;47184;57.998;56.184;2023-02-28T04:26:51;2.42;;;1.67;;
61112;SDS011;47184;57.998;56.184;2023-02-28T04:29:20;2.30;;;1.83;;
61112;SDS011;47184;57.998;56.184;2023-02-28T04:31:54;4.80;;;3.08;;
61112;SDS011;47184;57.998;56.184;2023-02-28T04:34:23;1.25;;;1.08;;
61112;SDS011;47184;57.998;56.184;2023-02-28T04:36:50;1.42;;;1.15;;
61112;SDS011;47184;57.998;56.184;2023-02-28T04:39:19;7.00;;;4.47;;
61112;SDS011;47184;57.998;56.184;2023-02-28T04:41:45;4.35;;;1.85;;
61112;SDS011;47184;57.998;56.184;2023-02-28T04:47:48;8.32;;;3.70;;
61112;SDS011;47184;57.998;56.184;2023-02-28T04:50:14;0.70;;;0.52;;
61112;SDS011;47184;57.998;56.184;2023-02-28T04:52:40;1.73;;;1.10;;
61112;SDS011;47184;57.998;56.184;2023-02-28T04:55:06;3.50;;;1.58;;
61112;SDS011;47184;57.998;56.184;2023-02-28T04:57:33;8.98;;;5.55;;
61112;SDS011;47184;57.998;56.184;2023-02-28T04:59:59;4.22;;;2.83;;
61112;SDS011;47184;57.998;56.184;2023-02-28T05:02:25;6.90;;;4.30;;
61112;SDS011;47184;57.998;56.184;2023-02-28T05:04:51;10.63;;;5.30;;
61112;SDS011;47184;57.998;56.184;2023-02-28T05:19:37;7.38;;;4.20;;
61112;SDS011;47184;57.998;56.184;2023-02-28T05:22:03;9.38;;;6.00;;
61112;SDS011;47184;57.998;56.184;2023-02-28T05:24:30;10.10;;;6.00;;
61112;SDS011;47184;57.998;56.184;2023-02-28T05:26:56;5.47;;;2.83;;
61112;SDS011;47184;57.998;56.184;2023-02-28T05:29:23;2.92;;;1.77;;
61112;SDS011;47184;57.998;56.184;2023-02-28T05:31:49;5.47;;;2.67;;
61112;SDS011;47184;57.998;56.184;2023-02-28T05:34:15;7.20;;;3.65;;
61112;SDS011;47184;57.998;56.184;2023-02-28T05:36:42;9.63;;;5.15;;
61112;SDS011;47184;57.998;56.184;2023-02-28T05:39:08;8.85;;;4.97;;
61112;SDS011;47184;57.998;56.184;2023-02-28T05:45:45;6.85;;;3.17;;
61112;SDS011;47184;57.998;56.184;2023-02-28T05:48:12;12.20;;;7.93;;
61112;SDS011;47184;57.998;56.184;2023-02-28T05:50:38;9.70;;;5.30;;
61112;SDS011;47184;57.998;56.184;2023-02-28T05:53:04;7.45;;;3.53;;
61112;SDS011;47184;57.998;56.184;2023-02-28T05:55:32;5.93;;;3.75;;
61112;SDS011;47184;57.998;56.184;2023-02-28T05:57:58;3.83;;;2.13;;
61112;SDS011;47184;57.998;56.184;2023-02-28T06:00:24;4.75;;;2.55;;
61112;SDS011;47184;57.998;56.184;2023-02-28T06:02:51;7.70;;;4.00;;
61112;SDS011;47184;57.998;56.184;2023-02-28T06:09:29;5.30;;;2.28;;
61112;SDS011;47184;57.998;56.184;2023-02-28T06:11:57;1.50;;;0.95;;
61112;SDS011;47184;57.998;56.184;2023-02-28T06:14:26;7.97;;;4.68;;
61112;SDS011;47184;57.998;56.184;2023-02-28T06:16:52;5.85;;;2.97;;
61112;SDS011;47184;57.998;56.184;2023-02-28T06:19:18;9.70;;;5.00;;
61112;SDS011;47184;57.998;56.184;2023-02-28T06:21:44;3.60;;;2.03;;
61112;SDS011;47184;57.998;56.184;2023-02-28T06:24:14;12.30;;;6.45;;
61112;SDS011;47184;57.998;56.184;2023-02-28T06:26:42;11.23;;;5.63;;
61112;SDS011;47184;57.998;56.184;2023-02-28T06:29:08;5.50;;;2.92;;
61112;SDS011;47184;57.998;56.184;2023-02-28T06:34:09;1.63;;;1.17;;
61112;SDS011;47184;57.998;56.184;2023-02-28T06:36:40;8.50;;;4.47;;
61112;SDS011;47184;57.998;56.184;2023-02-28T06:39:07;4.95;;;3.05;;
61112;SDS011;47184;57.998;56.184;2023-02-28T06:41:38;6.25;;;2.92;;
61112;SDS011;47184;57.998;56.184;2023-02-28T06:44:20;4.90;;;2.90;;
61112;SDS011;47184;57.998;56.184;2023-02-28T06:46:46;9.00;;;4.57;;
61112;SDS011;47184;57.998;56.184;2023-02-28T06:49:13;7.75;;;3.97;;
61112;SDS011;47184;57.998;56.184;2023-02-28T06:51:40;5.85;;;3.15;;
61112;SDS011;47184;57.998;56.184;2023-02-28T06:54:11;7.00;;;3.22;;
61112;SDS011;47184;57.998;56.184;2023-02-28T06:56:37;3.80;;;2.53;;
61112;SDS011;47184;57.998;56.184;2023-02-28T06:59:04;2.83;;;1.52;;
61112;SDS011;47184;57.998;56.184;2023-02-28T07:01:30;2.95;;;1.75;;
61112;SDS011;47184;57.998;56.184;2023-02-28T07:04:00;4.43;;;2.65;;
61112;SDS011;47184;57.998;56.184;2023-02-28T07:06:28;1.80;;;0.82;;
61112;SDS011;47184;57.998;56.184;2023-02-28T07:08:54;3.05;;;2.20;;
61112;SDS011;47184;57.998;56.184;2023-02-28T07:11:21;2.10;;;1.02;;
61112;SDS011;47184;57.998;56.184;2023-02-28T07:13:51;3.75;;;1.58;;
61112;SDS011;47184;57.998;56.184;2023-02-28T07:16:19;3.15;;;2.15;;
61112;SDS011;47184;57.998;56.184;2023-02-28T07:18:45;6.78;;;2.90;;
61112;SDS011;47184;57.998;56.184;2023-02-28T07:21:11;2.17;;;1.33;;
61112;SDS011;47184;57.998;56.184;2023-02-28T07:23:38;7.80;;;3.25;;
61112;SDS011;47184;57.998;56.184;2023-02-28T07:26:15;2.50;;;1.80;;
61112;SDS011;47184;57.998;56.184;2023-02-28T07:28:44;6.10;;;3.92;;
61112;SDS011;47184;57.998;56.184;2023-02-28T07:31:12;2.55;;;1.33;;
61112;SDS011;47184;57.998;56.184;2023-02-28T07:33:39;7.10;;;4.00;;
61112;SDS011;47184;57.998;56.184;2023-02-28T07:36:07;6.38;;;3.83;;
61112;SDS011;47184;57.998;56.184;2023-02-28T07:38:41;9.27;;;3.88;;
61112;SDS011;47184;57.998;56.184;2023-02-28T07:41:09;5.03;;;3.05;;
61112;SDS011;47184;57.998;56.184;2023-02-28T07:43:35;5.60;;;3.15;;
61112;SDS011;47184;57.998;56.184;2023-02-28T07:46:05;1.92;;;0.98;;
61112;SDS011;47184;57.998;56.184;2023-02-28T07:48:33;2.10;;;1.60;;
61112;SDS011;47184;57.998;56.184;2023-02-28T07:51:00;7.43;;;3.50;;
61112;SDS011;47184;57.998;56.184;2023-02-28T07:53:26;9.07;;;4.53;;
61112;SDS011;47184;57.998;56.184;2023-02-28T07:55:55;10.40;;;4.53;;
61112;SDS011;47184;57.998;56.184;2023-02-28T07:58:22;2.00;;;1.40;;
61112;SDS011;47184;57.998;56.184;2023-02-28T08:00:49;3.80;;;2.15;;
61112;SDS011;47184;57.998;56.184;2023-02-28T08:03:16;2.10;;;1.45;;
61112;SDS011;47184;57.998;56.184;2023-02-28T08:05:44;2.25;;;1.33;;
61112;SDS011;47184;57.998;56.184;2023-02-28T08:08:11;5.93;;;2.67;;
61112;SDS011;47184;57.998;56.184;2023-02-28T08:10:37;7.22;;;4.72;;
61112;SDS011;47184;57.998;56.184;2023-02-28T08:13:03;6.65;;;3.40;;
61112;SDS011;47184;57.998;56.184;2023-02-28T08:15:29;3.75;;;2.50;;
61112;SDS011;47184;57.998;56.184;2023-02-28T08:17:56;4.72;;;2.90;;
61112;SDS011;47184;57.998;56.184;2023-02-28T08:20:22;5.07;;;3.28;;
61112;SDS011;47184;57.998;56.184;2023-02-28T08:22:49;6.55;;;3.65;;
61112;SDS011;47184;57.998;56.184;2023-02-28T08:25:16;4.32;;;1.92;;
61112;SDS011;47184;57.998;56.184;2023-02-28T08:27:42;3.60;;;2.17;;
61112;SDS011;47184;57.998;56.184;2023-02-28T08:30:11;3.25;;;1.88;;
61112;SDS011;47184;57.998;56.184;2023-02-28T08:32:39;8.75;;;5.50;;
61112;SDS011;47184;57.998;56.184;2023-02-28T08:35:06;4.43;;;2.97;;
61112;SDS011;47184;57.998;56.184;2023-02-28T08:37:35;6.90;;;4.22;;
61112;SDS011;47184;57.998;56.184;2023-02-28T08:40:01;6.35;;;3.60;;
61112;SDS011;47184;57.998;56.184;2023-02-28T08:42:29;4.53;;;2.95;;
61112;SDS011;47184;57.998;56.184;2023-02-28T08:44:56;2.33;;;1.45;;
61112;SDS011;47184;57.998;56.184;2023-02-28T08:47:22;4.60;;;2.55;;
61112;SDS011;47184;57.998;56.184;2023-02-28T08:49:48;4.00;;;2.22;;
61112;SDS011;47184;57.998;56.184;2023-02-28T08:52:14;3.65;;;2.28;;
61112;SDS011;47184;57.998;56.184;2023-02-28T08:54:40;9.43;;;4.93;;
61112;SDS011;47184;57.998;56.184;2023-02-28T08:57:06;6.40;;;3.35;;
61112;SDS011;47184;57.998;56.184;2023-02-28T08:59:32;8.35;;;2.95;;
61112;SDS011;47184;57.998;56.184;2023-02-28T09:01:59;7.78;;;4.60;;
61112;SDS011;47184;57.998;56.184;2023-02-28T09:04:25;5.40;;;2.83;;
61112;SDS011;47184;57.998;56.184;2023-02-28T09:06:51;8.73;;;4.32;;
61112;SDS011;47184;57.998;56.184;2023-02-28T09:09:17;6.55;;;4.45;;
61112;SDS011;47184;57.998;56.184;2023-02-28T09:11:43;6.97;;;4.72;;
61112;SDS011;47184;57.998;56.184;2023-02-28T09:14:09;7.53;;;4.03;;
61112;SDS011;47184;57.998;56.184;2023-02-28T09:16:36;7.75;;;3.95;;
61112;SDS011;47184;57.998;56.184;2023-02-28T09:19:02;5.03;;;2.80;;
61112;SDS011;47184;57.998;56.184;2023-02-28T09:21:29;3.58;;;2.08;;
61112;SDS011;47184;57.998;56.184;2023-02-28T09:23:55;4.57;;;3.08;;
61112;SDS011;47184;57.998;56.184;2023-02-28T09:26:23;4.55;;;2.70;;
61112;SDS011;47184;57.998;56.184;2023-02-28T09:28:51;5.78;;;3.30;;
61112;SDS011;47184;57.998;56.184;2023-02-28T09:31:18;8.68;;;5.35;;
61112;SDS011;47184;57.998;56.184;2023-02-28T09:33:50;4.78;;;2.75;;
61112;SDS011;47184;57.998;56.184;2023-02-28T09:36:18;7.65;;;4.10;;
61112;SDS011;47184;57.998;56.184;2023-02-28T09:38:49;8.23;;;4.60;;
61112;SDS011;47184;57.998;56.184;2023-02-28T09:41:21;9.55;;;5.28;;
61112;SDS011;47184;57.998;56.184;2023-02-28T09:43:50;8.82;;;4.70;;
61112;SDS011;47184;57.998;56.184;2023-02-28T09:49:04;7.85;;;4.45;;
61112;SDS011;47184;57.998;56.184;2023-02-28T09:51:39;6.20;;;3.88;;
61112;SDS011;47184;57.998;56.184;2023-02-28T09:54:21;5.85;;;3.13;;
61112;SDS011;47184;57.998;56.184;2023-02-28T09:56:58;4.78;;;1.92;;
61112;SDS011;47184;57.998;56.184;2023-02-28T10:04:58;12.75;;;5.00;;
61112;SDS011;47184;57.998;56.184;2023-02-28T10:09:59;6.65;;;4.07;;
61112;SDS011;47184;57.998;56.184;2023-02-28T10:12:30;6.00;;;2.70;;
61112;SDS011;47184;57.998;56.184;2023-02-28T10:14:58;7.68;;;3.95;;
61112;SDS011;47184;57.998;56.184;2023-02-28T10:17:36;11.60;;;6.10;;
61112;SDS011;47184;57.998;56.184;2023-02-28T10:20:17;6.53;;;3.80;;
61112;SDS011;47184;57.998;56.184;2023-02-28T10:23:01;4.68;;;2.72;;
61112;SDS011;47184;57.998;56.184;2023-02-28T10:25:38;5.68;;;2.75;;
61112;SDS011;47184;57.998;56.184;2023-02-28T10:28:15;7.63;;;3.55;;
61112;SDS011;47184;57.998;56.184;2023-02-28T10:30:50;5.63;;;3.42;;
61112;SDS011;47184;57.998;56.184;2023-02-28T10:33:19;10.85;;;5.13;;
61112;SDS011;47184;57.998;56.184;2023-02-28T10:35:47;7.10;;;4.20;;
61112;SDS011;47184;57.998;56.184;2023-02-28T10:38:17;6.65;;;3.60;;
61112;SDS011;47184;57.998;56.184;2023-02-28T10:40:46;10.00;;;5.93;;
61112;SDS011;47184;57.998;56.184;2023-02-28T10:45:38;5.82;;;2.65;;
61112;SDS011;47184;57.998;56.184;2023-02-28T10:50:44;8.80;;;5.10;;
61112;SDS011;47184;57.998;56.184;2023-02-28T10:55:48;5.60;;;3.17;;
61112;SDS011;47184;57.998;56.184;2023-02-28T10:58:25;4.40;;;2.13;;
61112;SDS011;47184;57.998;56.184;2023-02-28T11:00:56;3.78;;;1.88;;
61112;SDS011;47184;57.998;56.184;2023-02-28T11:03:25;6.25;;;3.53;;
61112;SDS011;47184;57.998;56.184;2023-02-28T11:05:57;3.00;;;1.48;;
61112;SDS011;47184;57.998;56.184;2023-02-28T11:08:24;6.10;;;3.22;;
61112;SDS011;47184;57.998;56.184;2023-02-28T11:10:54;4.30;;;1.95;;
61112;SDS011;47184;57.998;56.184;2023-02-28T11:13:36;8.40;;;4.20;;
61112;SDS011;47184;57.998;56.184;2023-02-28T11:16:09;4.60;;;2.35;;
61112;SDS011;47184;57.998;56.184;2023-02-28T11:18:50;7.32;;;4.18;;
61112;SDS011;47184;57.998;56.184;2023-02-28T11:21:23;11.13;;;5.45;;
61112;SDS011;47184;57.998;56.184;2023-02-28T11:24:03;4.97;;;3.45;;
61112;SDS011;47184;57.998;56.184;2023-02-28T11:26:37;9.30;;;5.47;;
61112;SDS011;47184;57.998;56.184;2023-02-28T11:29:18;6.50;;;3.60;;
61112;SDS011;47184;57.998;56.184;2023-02-28T11:34:37;8.23;;;5.00;;
61112;SDS011;47184;57.998;56.184;2023-02-28T11:37:08;3.13;;;1.95;;
61112;SDS011;47184;57.998;56.184;2023-02-28T11:39:40;8.32;;;5.18;;
61112;SDS011;47184;57.998;56.184;2023-02-28T11:54:01;7.25;;;4.50;;
61112;SDS011;47184;57.998;56.184;2023-02-28T11:56:23;17.10;;;6.25;;
61112;SDS011;47184;57.998;56.184;2023-02-28T11:59:01;6.53;;;3.15;;
61112;SDS011;47184;57.998;56.184;2023-02-28T12:04:39;8.32;;;4.85;;
61112;SDS011;47184;57.998;56.184;2023-02-28T12:07:20;7.70;;;4.47;;
61112;SDS011;47184;57.998;56.184;2023-02-28T12:24:00;11.15;;;5.63;;
61112;SDS011;47184;57.998;56.184;2023-02-28T12:26:44;15.52;;;6.57;;
61112;SDS011;47184;57.998;56.184;2023-02-28T12:29:22;12.60;;;5.47;;
61112;SDS011;47184;57.998;56.184;2023-02-28T12:34:33;6.20;;;3.40;;
61112;SDS011;47184;57.998;56.184;2023-02-28T12:40:05;8.77;;;4.18;;
61112;SDS011;47184;57.998;56.184;2023-02-28T12:42:39;12.85;;;5.90;;
61112;SDS011;47184;57.998;56.184;2023-02-28T12:45:13;11.60;;;5.10;;
61112;SDS011;47184;57.998;56.184;2023-02-28T12:47:46;10.23;;;5.18;;
61112;SDS011;47184;57.998;56.184;2023-02-28T12:50:18;9.73;;;5.63;;
61112;SDS011;47184;57.998;56.184;2023-02-28T12:58:15;10.88;;;5.68;;
61112;SDS011;47184;57.998;56.184;2023-02-28T13:11:52;16.58;;;6.63;;
61112;SDS011;47184;57.998;56.184;2023-02-28T13:14:25;15.23;;;7.80;;
61112;SDS011;47184;57.998;56.184;2023-02-28T13:17:13;13.82;;;7.47;;
61112;SDS011;47184;57.998;56.184;2023-02-28T13:24:52;15.55;;;8.88;;
61112;SDS011;47184;57.998;56.184;2023-02-28T13:30:58;17.67;;;9.65;;
61112;SDS011;47184;57.998;56.184;2023-02-28T13:33:32;16.40;;;8.73;;
61112;SDS011;47184;57.998;56.184;2023-02-28T13:38:41;11.98;;;6.78;;
61112;SDS011;47184;57.998;56.184;2023-02-28T13:44:13;12.20;;;7.13;;
61112;SDS011;47184;57.998;56.184;2023-02-28T14:05:32;11.52;;;5.78;;
61112;SDS011;47184;57.998;56.184;2023-02-28T14:08:04;10.18;;;4.97;;
61112;SDS011;47184;57.998;56.184;2023-02-28T14:10:41;12.40;;;4.20;;
61112;SDS011;47184;57.998;56.184;2023-02-28T14:13:58;30.85;;;7.28;;
61112;SDS011;47184;57.998;56.184;2023-02-28T14:16:10;8.68;;;4.65;;
61112;SDS011;47184;57.998;56.184;2023-02-28T14:19:02;15.00;;;6.55;;
61112;SDS011;47184;57.998;56.184;2023-02-28T14:21:38;9.00;;;5.07;;
61112;SDS011;47184;57.998;56.184;2023-02-28T14:38:28;9.82;;;5.50;;
61112;SDS011;47184;57.998;56.184;2023-02-28T14:43:26;13.63;;;8.35;;
61112;SDS011;47184;57.998;56.184;2023-02-28T14:45:55;10.98;;;5.25;;
61112;SDS011;47184;57.998;56.184;2023-02-28T14:48:26;13.98;;;7.30;;
61112;SDS011;47184;57.998;56.184;2023-02-28T14:50:55;15.43;;;7.82;;
61112;SDS011;47184;57.998;56.184;2023-02-28T14:53:29;6.35;;;3.88;;
61112;SDS011;47184;57.998;56.184;2023-02-28T14:56:00;18.30;;;9.45;;
61112;SDS011;47184;57.998;56.184;2023-02-28T14:58:31;13.77;;;7.10;;
61112;SDS011;47184;57.998;56.184;2023-02-28T15:00:59;16.60;;;8.85;;
61112;SDS011;47184;57.998;56.184;2023-02-28T15:03:30;4.38;;;2.65;;
61112;SDS011;47184;57.998;56.184;2023-02-28T15:06:03;7.05;;;2.67;;
61112;SDS011;47184;57.998;56.184;2023-02-28T15:08:31;9.15;;;5.45;;
61112;SDS011;47184;57.998;56.184;2023-02-28T15:11:05;11.15;;;7.07;;
61112;SDS011;47184;57.998;56.184;2023-02-28T15:13:44;4.03;;;2.45;;
61112;SDS011;47184;57.998;56.184;2023-02-28T15:16:20;6.57;;;3.75;;
61112;SDS011;47184;57.998;56.184;2023-02-28T15:19:13;13.48;;;6.25;;
61112;SDS011;47184;57.998;56.184;2023-02-28T15:21:44;9.15;;;5.03;;
61112;SDS011;47184;57.998;56.184;2023-02-28T15:26:57;10.90;;;6.20;;
61112;SDS011;47184;57.998;56.184;2023-02-28T15:29:27;3.60;;;2.28;;
61112;SDS011;47184;57.998;56.184;2023-02-28T15:32:01;14.70;;;3.95;;
61112;SDS011;47184;57.998;56.184;2023-02-28T15:34:37;14.60;;;3.40;;
61112;SDS011;47184;57.998;56.184;2023-02-28T15:43:03;11.35;;;5.88;;
61112;SDS011;47184;57.998;56.184;2023-02-28T15:45:49;15.98;;;8.70;;
61112;SDS011;47184;57.998;56.184;2023-02-28T15:50:51;5.05;;;2.88;;
61112;SDS011;47184;57.998;56.184;2023-02-28T15:53:24;8.48;;;3.60;;
61112;SDS011;47184;57.998;56.184;2023-02-28T15:56:06;12.57;;;6.25;;
61112;SDS011;47184;57.998;56.184;2023-02-28T15:59:03;9.88;;;4.72;;
61112;SDS011;47184;57.998;56.184;2023-02-28T16:01:35;9.10;;;4.95;;
61112;SDS011;47184;57.998;56.184;2023-02-28T16:04:11;7.57;;;4.28;;
61112;SDS011;47184;57.998;56.184;2023-02-28T16:06:43;7.13;;;4.35;;
61112;SDS011;47184;57.998;56.184;2023-02-28T16:09:28;4.10;;;2.38;;
61112;SDS011;47184;57.998;56.184;2023-02-28T16:11:58;6.45;;;4.05;;
61112;SDS011;47184;57.998;56.184;2023-02-28T16:14:27;4.63;;;2.50;;
61112;SDS011;47184;57.998;56.184;2023-02-28T16:17:06;7.15;;;3.83;;
61112;SDS011;47184;57.998;56.184;2023-02-28T16:19:42;6.68;;;3.83;;
61112;SDS011;47184;57.998;56.184;2023-02-28T16:22:09;8.25;;;4.78;;
61112;SDS011;47184;57.998;56.184;2023-02-28T16:24:36;4.22;;;2.55;;
61112;SDS011;47184;57.998;56.184;2023-02-28T16:27:09;4.78;;;2.80;;
61112;SDS011;47184;57.998;56.184;2023-02-28T16:29:50;6.32;;;3.75;;
61112;SDS011;47184;57.998;56.184;2023-02-28T16:32:18;9.50;;;3.00;;
61112;SDS011;47184;57.998;56.184;2023-02-28T16:34:45;10.07;;;3.92;;
61112;SDS011;47184;57.998;56.184;2023-02-28T16:37:14;6.22;;;3.70;;
61112;SDS011;47184;57.998;56.184;2023-02-28T16:39:45;9.18;;;2.80;;
61112;SDS011;47184;57.998;56.184;2023-02-28T16:42:15;5.72;;;2.63;;
61112;SDS011;47184;57.998;56.184;2023-02-28T16:44:50;6.75;;;3.70;;
61112;SDS011;47184;57.998;56.184;2023-02-28T16:47:19;4.60;;;2.17;;
61112;SDS011;47184;57.998;56.184;2023-02-28T16:49:46;3.20;;;1.85;;
61112;SDS011;47184;57.998;56.184;2023-02-28T16:52:14;9.70;;;5.05;;
61112;SDS011;47184;57.998;56.184;2023-02-28T16:54:44;4.15;;;2.88;;
61112;SDS011;47184;57.998;56.184;2023-02-28T16:57:21;6.70;;;2.80;;
61112;SDS011;47184;57.998;56.184;2023-02-28T16:59:49;4.85;;;2.75;;
61112;SDS011;47184;57.998;56.184;2023-02-28T17:02:19;8.48;;;4.00;;
61112;SDS011;47184;57.998;56.184;2023-02-28T17:04:46;7.65;;;3.63;;
61112;SDS011;47184;57.998;56.184;2023-02-28T17:07:13;8.98;;;4.18;;
61112;SDS011;47184;57.998;56.184;2023-02-28T17:09:42;4.18;;;2.60;;
61112;SDS011;47184;57.998;56.184;2023-02-28T17:12:10;2.30;;;1.42;;
61112;SDS011;47184;57.998;56.184;2023-02-28T17:14:37;4.35;;;2.70;;
61112;SDS011;47184;57.998;56.184;2023-02-28T17:17:05;3.20;;;2.38;;
61112;SDS011;47184;57.998;56.184;2023-02-28T17:19:34;4.47;;;2.45;;
61112;SDS011;47184;57.998;56.184;2023-02-28T17:22:04;3.92;;;1.83;;
61112;SDS011;47184;57.998;56.184;2023-02-28T17:24:30;3.05;;;1.50;;
61112;SDS011;47184;57.998;56.184;2023-02-28T17:26:57;1.10;;;0.50;;
61112;SDS011;47184;57.998;56.184;2023-02-28T17:29:23;3.63;;;2.17;;
61112;SDS011;47184;57.998;56.184;2023-02-28T17:31:50;3.08;;;1.38;;
61112;SDS011;47184;57.998;56.184;2023-02-28T17:34:18;5.88;;;3.25;;
61112;SDS011;47184;57.998;56.184;2023-02-28T17:36:46;5.00;;;3.03;;
61112;SDS011;47184;57.998;56.184;2023-02-28T17:39:15;4.55;;;2.88;;
61112;SDS011;47184;57.998;56.184;2023-02-28T17:41:53;9.52;;;2.00;;
61112;SDS011;47184;57.998;56.184;2023-02-28T17:44:21;7.03;;;3.10;;
61112;SDS011;47184;57.998;56.184;2023-02-28T17:46:51;3.83;;;2.20;;
61112;SDS011;47184;57.998;56.184;2023-02-28T17:49:20;4.80;;;2.95;;
61112;SDS011;47184;57.998;56.184;2023-02-28T17:51:47;5.63;;;2.40;;
61112;SDS011;47184;57.998;56.184;2023-02-28T17:54:14;6.10;;;2.88;;
61112;SDS011;47184;57.998;56.184;2023-02-28T17:56:41;4.85;;;2.92;;
61112;SDS011;47184;57.998;56.184;2023-02-28T17:59:11;7.10;;;2.80;;
61112;SDS011;47184;57.998;56.184;2023-02-28T18:01:38;5.63;;;2.55;;
61112;SDS011;47184;57.998;56.184;2023-02-28T18:04:05;0.95;;;0.47;;
61112;SDS011;47184;57.998;56.184;2023-02-28T18:06:38;4.50;;;2.78;;
61112;SDS011;47184;57.998;56.184;2023-02-28T18:09:19;8.65;;;2.80;;
61112;SDS011;47184;57.998;56.184;2023-02-28T18:11:53;3.17;;;1.70;;
61112;SDS011;47184;57.998;56.184;2023-02-28T18:14:22;5.82;;;3.03;;
61112;SDS011;47184;57.998;56.184;2023-02-28T18:16:51;8.85;;;2.95;;
61112;SDS011;47184;57.998;56.184;2023-02-28T18:19:22;4.88;;;2.10;;
61112;SDS011;47184;57.998;56.184;2023-02-28T18:21:49;3.88;;;1.95;;
61112;SDS011;47184;57.998;56.184;2023-02-28T18:24:18;1.27;;;0.80;;
61112;SDS011;47184;57.998;56.184;2023-02-28T18:26:45;1.45;;;1.10;;
61112;SDS011;47184;57.998;56.184;2023-02-28T18:29:15;4.65;;;2.35;;
61112;SDS011;47184;57.998;56.184;2023-02-28T18:31:44;8.20;;;2.85;;
61112;SDS011;47184;57.998;56.184;2023-02-28T18:34:10;0.50;;;0.30;;
61112;SDS011;47184;57.998;56.184;2023-02-28T18:36:36;2.90;;;1.58;;
61112;SDS011;47184;57.998;56.184;2023-02-28T18:39:02;1.92;;;0.60;;
61112;SDS011;47184;57.998;56.184;2023-02-28T18:41:29;2.58;;;1.55;;
61112;SDS011;47184;57.998;56.184;2023-02-28T18:43:55;3.15;;;1.95;;
61112;SDS011;47184;57.998;56.184;2023-02-28T18:46:22;3.83;;;1.98;;
61112;SDS011;47184;57.998;56.184;2023-02-28T18:48:48;3.05;;;2.08;;
61112;SDS011;47184;57.998;56.184;2023-02-28T18:51:16;3.55;;;2.13;;
61112;SDS011;47184;57.998;56.184;2023-02-28T18:53:46;8.95;;;2.78;;
61112;SDS011;47184;57.998;56.184;2023-02-28T18:56:14;5.53;;;1.92;;
61112;SDS011;47184;57.998;56.184;2023-02-28T18:58:45;4.80;;;2.35;;
61112;SDS011;47184;57.998;56.184;2023-02-28T19:01:21;3.30;;;0.80;;
61112;SDS011;47184;57.998;56.184;2023-02-28T19:03:51;3.35;;;1.38;;
61112;SDS011;47184;57.998;56.184;2023-02-28T19:06:17;2.25;;;1.10;;
61112;SDS011;47184;57.998;56.184;2023-02-28T19:08:44;4.43;;;1.45;;
61112;SDS011;47184;57.998;56.184;2023-02-28T19:11:13;3.60;;;1.20;;
61112;SDS011;47184;57.998;56.184;2023-02-28T19:13:41;3.47;;;1.45;;
61112;SDS011;47184;57.998;56.184;2023-02-28T19:16:08;3.72;;;1.75;;
61112;SDS011;47184;57.998;56.184;2023-02-28T19:18:35;7.13;;;2.47;;
61112;SDS011;47184;57.998;56.184;2023-02-28T19:21:02;3.38;;;1.75;;
61112;SDS011;47184;57.998;56.184;2023-02-28T19:23:30;3.45;;;1.40;;
61112;SDS011;47184;57.998;56.184;2023-02-28T19:25:58;5.63;;;2.95;;
61112;SDS011;47184;57.998;56.184;2023-02-28T19:28:28;4.18;;;2.33;;
61112;SDS011;47184;57.998;56.184;2023-02-28T19:30:57;2.97;;;1.70;;
61112;SDS011;47184;57.998;56.184;2023-02-28T19:33:23;3.33;;;2.08;;
61112;SDS011;47184;57.998;56.184;2023-02-28T19:35:50;3.17;;;1.75;;
61112;SDS011;47184;57.998;56.184;2023-02-28T19:38:16;6.47;;;2.97;;
61112;SDS011;47184;57.998;56.184;2023-02-28T19:40:42;2.35;;;1.50;;
61112;SDS011;47184;57.998;56.184;2023-02-28T19:43:09;4.00;;;2.60;;
61112;SDS011;47184;57.998;56.184;2023-02-28T19:45:35;7.18;;;1.48;;
61112;SDS011;47184;57.998;56.184;2023-02-28T19:48:03;2.40;;;1.40;;
61112;SDS011;47184;57.998;56.184;2023-02-28T19:50:30;2.63;;;1.23;;
61112;SDS011;47184;57.998;56.184;2023-02-28T19:52:56;5.43;;;2.53;;
61112;SDS011;47184;57.998;56.184;2023-02-28T19:55:22;2.58;;;0.65;;
61112;SDS011;47184;57.998;56.184;2023-02-28T19:57:48;0.52;;;0.38;;
61112;SDS011;47184;57.998;56.184;2023-02-28T20:00:14;5.18;;;2.45;;
61112;SDS011;47184;57.998;56.184;2023-02-28T20:02:41;1.38;;;0.88;;
61112;SDS011;47184;57.998;56.184;2023-02-28T20:05:08;3.40;;;1.85;;
61112;SDS011;47184;57.998;56.184;2023-02-28T20:07:34;3.80;;;1.77;;
61112;SDS011;47184;57.998;56.184;2023-02-28T20:10:00;6.80;;;2.45;;
61112;SDS011;47184;57.998;56.184;2023-02-28T20:12:27;15.70;;;1.60;;
61112;SDS011;47184;57.998;56.184;2023-02-28T20:14:53;0.50;;;0.20;;
61112;SDS011;47184;57.998;56.184;2023-02-28T20:17:24;3.70;;;1.92;;
61112;SDS011;47184;57.998;56.184;2023-02-28T20:19:50;4.13;;;1.88;;
61112;SDS011;47184;57.998;56.184;2023-02-28T20:22:16;0.85;;;0.45;;
61112;SDS011;47184;57.998;56.184;2023-02-28T20:24:42;2.42;;;1.65;;
61112;SDS011;47184;57.998;56.184;2023-02-28T20:27:08;3.10;;;1.65;;
61112;SDS011;47184;57.998;56.184;2023-02-28T20:29:34;1.60;;;0.82;;
61112;SDS011;47184;57.998;56.184;2023-02-28T20:32:01;3.92;;;1.50;;
61112;SDS011;47184;57.998;56.184;2023-02-28T20:34:27;3.03;;;1.55;;
61112;SDS011;47184;57.998;56.184;2023-02-28T20:36:53;0.10;;;0.10;;
61112;SDS011;47184;57.998;56.184;2023-02-28T20:39:21;1.08;;;0.80;;
61112;SDS011;47184;57.998;56.184;2023-02-28T20:41:48;2.10;;;0.95;;
61112;SDS011;47184;57.998;56.184;2023-02-28T20:44:14;1.05;;;0.68;;
61112;SDS011;47184;57.998;56.184;2023-02-28T20:46:40;1.30;;;0.85;;
61112;SDS011;47184;57.998;56.184;2023-02-28T20:49:08;8.55;;;1.10;;
61112;SDS011;47184;57.998;56.184;2023-02-28T20:51:35;4.03;;;1.98;;
61112;SDS011;47184;57.998;56.184;2023-02-28T20:54:05;2.20;;;0.68;;
61112;SDS011;47184;57.998;56.184;2023-02-28T20:56:32;0.90;;;0.57;;
61112;SDS011;47184;57.998;56.184;2023-02-28T20:58:58;3.80;;;2.10;;
61112;SDS011;47184;57.998;56.184;2023-02-28T21:01:26;2.90;;;0.88;;
61112;SDS011;47184;57.998;56.184;2023-02-28T21:06:25;3.65;;;2.00;;
61112;SDS011;47184;57.998;56.184;2023-02-28T21:08:53;1.17;;;0.60;;
61112;SDS011;47184;57.998;56.184;2023-02-28T21:11:26;0.98;;;0.55;;
61112;SDS011;47184;57.998;56.184;2023-02-28T21:13:57;1.85;;;1.13;;
61112;SDS011;47184;57.998;56.184;2023-02-28T21:16:24;2.15;;;0.77;;
61112;SDS011;47184;57.998;56.184;2023-02-28T21:18:51;3.15;;;1.65;;
61112;SDS011;47184;57.998;56.184;2023-02-28T21:21:19;0.50;;;0.30;;
61112;SDS011;47184;57.998;56.184;2023-02-28T21:23:49;0.88;;;0.40;;
61112;SDS011;47184;57.998;56.184;2023-02-28T21:26:20;2.72;;;0.82;;
61112;SDS011;47184;57.998;56.184;2023-02-28T21:28:49;2.80;;;1.13;;
61112;SDS011;47184;57.998;56.184;2023-02-28T21:31:20;2.05;;;0.80;;